sensor_id;sensor_type;location;lat;lon;timestamp;P1;P2;P0
76045;PMS7003;64741;41.730;44.788;2023-02-28T00:01:59;9;7;5.6
76045;PMS7003;64741;41.730;44.788;2023-02-28T00:06:59;9.4;8.2;6
76045;PMS7003;64741;41.730;44.788;2023-02-28T00:11:57;11;9.6;6.4
76045;PMS7003;64741;41.730;44.788;2023-02-28T00:17:03;11.2;10.4;7.2
76045;PMS7003;64741;41.730;44.788;2023-02-28T00:21:55;10.2;9.8;7.4
76045;PMS7003;64741;41.730;44.788;2023-02-28T00:26:57;10.2;8.8;6.6
76045;PMS7003;64741;41.730;44.788;2023-02-28T00:31:57;11;9.4;6.8
76045;PMS7003;64741;41.730;44.788;2023-02-28T00:36:55;9.4;8.4;6.8
76045;PMS7003;64741;41.730;44.788;2023-02-28T00:41:49;9.6;8.2;6
76045;PMS7003;64741;41.730;44.788;2023-02-28T00:47:01;10;8;5.8
76045;PMS7003;64741;41.730;44.788;2023-02-28T00:51:59;11.4;9.6;7.4
76045;PMS7003;64741;41.730;44.788;2023-02-28T00:56:59;9;8;6
76045;PMS7003;64741;41.730;44.788;2023-02-28T01:01:57;8.6;7.6;5.4
76045;PMS7003;64741;41.730;44.788;2023-02-28T01:06:57;10.6;9.8;6.4
76045;PMS7003;64741;41.730;44.788;2023-02-28T01:12:03;9.6;9.2;6.8
76045;PMS7003;64741;41.730;44.788;2023-02-28T01:16:57;9.8;9;6.2
76045;PMS7003;64741;41.730;44.788;2023-02-28T01:22:00;7.8;7.4;5.4
76045;PMS7003;64741;41.730;44.788;2023-02-28T01:26:57;10.2;8.4;6
76045;PMS7003;64741;41.730;44.788;2023-02-28T01:31:53;10.4;8.6;6.2
76045;PMS7003;64741;41.730;44.788;2023-02-28T01:37:01;10.6;8;5.6
76045;PMS7003;64741;41.730;44.788;2023-02-28T01:41:55;9.4;6.8;5.4
76045;PMS7003;64741;41.730;44.788;2023-02-28T01:46:59;9.8;7.8;5.5
76045;PMS7003;64741;41.730;44.788;2023-02-28T01:51:59;8.6;7.8;5.8
76045;PMS7003;64741;41.730;44.788;2023-02-28T01:56:56;8.4;7;5.2
76045;PMS7003;64741;41.730;44.788;2023-02-28T02:02:01;8.8;7;5
76045;PMS7003;64741;41.730;44.788;2023-02-28T02:06:59;8;6;5.2
76045;PMS7003;64741;41.730;44.788;2023-02-28T02:11:59;9.4;8.2;5.8
76045;PMS7003;64741;41.730;44.788;2023-02-28T02:17:02;7.8;6.6;5
76045;PMS7003;64741;41.730;44.788;2023-02-28T02:22:10;8.8;6.4;4.8
76045;PMS7003;64741;41.730;44.788;2023-02-28T02:27:05;9.6;7.2;5.2
76045;PMS7003;64741;41.730;44.788;2023-02-28T02:32:35;7.4;7;5.4
76045;PMS7003;64741;41.730;44.788;2023-02-28T02:37:02;8;7.2;5.2
76045;PMS7003;64741;41.730;44.788;2023-02-28T02:41:58;7.6;6.8;4.6
76045;PMS7003;64741;41.730;44.788;2023-02-28T02:46:58;7.8;7.2;5.2
76045;PMS7003;64741;41.730;44.788;2023-02-28T02:52:04;8.6;7.4;5.2
76045;PMS7003;64741;41.730;44.788;2023-02-28T02:56:58;9;6.8;5
76045;PMS7003;64741;41.730;44.788;2023-02-28T03:01:58;8.4;7.4;5.8
76045;PMS7003;64741;41.730;44.788;2023-02-28T03:06:35;8;6.8;5.2
76045;PMS7003;64741;41.730;44.788;2023-02-28T03:11:55;6.8;6;4.8
76045;PMS7003;64741;41.730;44.788;2023-02-28T03:17:07;6.6;5.8;4.4
76045;PMS7003;64741;41.730;44.788;2023-02-28T03:22:03;8.4;7;5
76045;PMS7003;64741;41.730;44.788;2023-02-28T03:27:03;7.8;6;4.6
76045;PMS7003;64741;41.730;44.788;2023-02-28T03:31:58;8;7.2;4.8
76045;PMS7003;64741;41.730;44.788;2023-02-28T03:36:54;8.4;7;4.6
76045;PMS7003;64741;41.730;44.788;2023-02-28T03:42:04;6.2;5.8;4.6
76045;PMS7003;64741;41.730;44.788;2023-02-28T03:46:58;6.4;5.8;4.4
76045;PMS7003;64741;41.730;44.788;2023-02-28T03:51:57;7.2;6.4;4.2
76045;PMS7003;64741;41.730;44.788;2023-02-28T03:56:58;6.6;6.2;4.8
76045;PMS7003;64741;41.730;44.788;2023-02-28T04:01:55;7;6.6;5.4
76045;PMS7003;64741;41.730;44.788;2023-02-28T04:07:04;9.2;6.8;5.2
76045;PMS7003;64741;41.730;44.788;2023-02-28T04:11:59;8.6;7.4;5.4
76045;PMS7003;64741;41.730;44.788;2023-02-28T04:16:59;8.2;6;4.2
76045;PMS7003;64741;41.730;44.788;2023-02-28T04:21:59;7.8;6.8;4.6
76045;PMS7003;64741;41.730;44.788;2023-02-28T04:26:56;7.8;6;4.4
76045;PMS7003;64741;41.730;44.788;2023-02-28T04:32:03;6.8;6;4.6
76045;PMS7003;64741;41.730;44.788;2023-02-28T04:36:57;7.6;6.8;5
76045;PMS7003;64741;41.730;44.788;2023-02-28T04:41:59;8.8;7.2;5.2
76045;PMS7003;64741;41.730;44.788;2023-02-28T04:46:57;7.8;7;5
76045;PMS7003;64741;41.730;44.788;2023-02-28T04:51:55;6.4;5.6;4.4
76045;PMS7003;64741;41.730;44.788;2023-02-28T04:56:59;8.6;6.8;4.4
76045;PMS7003;64741;41.730;44.788;2023-02-28T05:01:55;7.6;6.6;4.8
76045;PMS7003;64741;41.730;44.788;2023-02-28T05:06:55;7.8;6.4;4.6
76045;PMS7003;64741;41.730;44.788;2023-02-28T05:11:57;8.2;6.6;4.4
76045;PMS7003;64741;41.730;44.788;2023-02-28T05:16:55;6.6;5.2;3.8
76045;PMS7003;64741;41.730;44.788;2023-02-28T05:22:01;6.8;5.6;4
76045;PMS7003;64741;41.730;44.788;2023-02-28T05:26:55;6.8;6;4
76045;PMS7003;64741;41.730;44.788;2023-02-28T05:31:57;6.8;6.2;4.6
76045;PMS7003;64741;41.730;44.788;2023-02-28T05:36:57;6;4.6;3.6
76045;PMS7003;64741;41.730;44.788;2023-02-28T05:41:53;6.6;5;4
76045;PMS7003;64741;41.730;44.788;2023-02-28T05:47:01;6.6;5.6;3.8
76045;PMS7003;64741;41.730;44.788;2023-02-28T05:51:53;5.4;5;3.2
76045;PMS7003;64741;41.730;44.788;2023-02-28T05:56:57;5.6;5;3.6
76045;PMS7003;64741;41.730;44.788;2023-02-28T06:01:55;7.4;6.4;4.2
76045;PMS7003;64741;41.730;44.788;2023-02-28T06:06:53;7;5.4;3.8
76045;PMS7003;64741;41.730;44.788;2023-02-28T06:11:31;6.2;6;4.8
76045;PMS7003;64741;41.730;44.788;2023-02-28T06:16:53;8;6.4;4.6
76045;PMS7003;64741;41.730;44.788;2023-02-28T06:21:57;7;5.4;4
76045;PMS7003;64741;41.730;44.788;2023-02-28T06:26:57;6;5.6;3.4
76045;PMS7003;64741;41.730;44.788;2023-02-28T06:31:53;6.2;4.6;3.4
76045;PMS7003;64741;41.730;44.788;2023-02-28T06:36:59;6.6;5;3.8
76045;PMS7003;64741;41.730;44.788;2023-02-28T06:41:55;6.4;5.6;4
76045;PMS7003;64741;41.730;44.788;2023-02-28T06:46:57;5.2;4.6;3.4
76045;PMS7003;64741;41.730;44.788;2023-02-28T06:51:44;5.4;4.2;3
76045;PMS7003;64741;41.730;44.788;2023-02-28T06:56:53;4.5;4;3.3
76045;PMS7003;64741;41.730;44.788;2023-02-28T07:02:01;5.2;4.6;3.4
76045;PMS7003;64741;41.730;44.788;2023-02-28T07:06:54;6;4.8;3
76045;PMS7003;64741;41.730;44.788;2023-02-28T07:11:57;4.6;4.4;2.8
76045;PMS7003;64741;41.730;44.788;2023-02-28T07:16:57;5.6;4.6;3.2
76045;PMS7003;64741;41.730;44.788;2023-02-28T07:21:55;6.8;4.8;3.2
76045;PMS7003;64741;41.730;44.788;2023-02-28T07:26:47;5.8;5;2.8
76045;PMS7003;64741;41.730;44.788;2023-02-28T07:31:55;4.8;4;3.4
76045;PMS7003;64741;41.730;44.788;2023-02-28T07:36:57;9.4;8.4;6.2
76045;PMS7003;64741;41.730;44.788;2023-02-28T07:41:57;12;11.4;8.6
76045;PMS7003;64741;41.730;44.788;2023-02-28T07:46:53;13.8;11.4;8
76045;PMS7003;64741;41.730;44.788;2023-02-28T07:52:01;12.4;11.2;8
76045;PMS7003;64741;41.730;44.788;2023-02-28T07:56:53;12.6;11.2;8
76045;PMS7003;64741;41.730;44.788;2023-02-28T08:01:53;13.8;11.6;9
76045;PMS7003;64741;41.730;44.788;2023-02-28T08:06:57;11.8;10;7.4
76045;PMS7003;64741;41.730;44.788;2023-02-28T08:11:53;14.8;13;9.4
76045;PMS7003;64741;41.730;44.788;2023-02-28T08:16:57;72.8;60.4;39.6
76045;PMS7003;64741;41.730;44.788;2023-02-28T08:21:53;101.6;87.4;58.8
76045;PMS7003;64741;41.730;44.788;2023-02-28T08:26:55;88.4;78;51.6
76045;PMS7003;64741;41.730;44.788;2023-02-28T08:31:55;80.6;69.6;46.6
76045;PMS7003;64741;41.730;44.788;2023-02-28T08:36:53;78;66.4;44.4
76045;PMS7003;64741;41.730;44.788;2023-02-28T08:41:59;75.4;64.2;43
76045;PMS7003;64741;41.730;44.788;2023-02-28T08:46:39;74.8;64.4;44.2
76045;PMS7003;64741;41.730;44.788;2023-02-28T08:51:55;74.2;62.2;42.2
76045;PMS7003;64741;41.730;44.788;2023-02-28T08:56:55;72.6;58.8;40.6
76045;PMS7003;64741;41.730;44.788;2023-02-28T09:01:55;69.8;54.8;37
76045;PMS7003;64741;41.730;44.788;2023-02-28T09:06:59;70.6;56;36
76045;PMS7003;64741;41.730;44.788;2023-02-28T09:11:54;67.8;52.2;35.4
76045;PMS7003;64741;41.730;44.788;2023-02-28T09:16:53;66.2;50;33.4
76045;PMS7003;64741;41.730;44.788;2023-02-28T09:21:55;63.2;49.2;33.2
76045;PMS7003;64741;41.730;44.788;2023-02-28T09:26:55;59.6;46;31
76045;PMS7003;64741;41.730;44.788;2023-02-28T09:31:59;56.4;44;29.6
76045;PMS7003;64741;41.730;44.788;2023-02-28T09:36:53;56;44;29.2
76045;PMS7003;64741;41.730;44.788;2023-02-28T09:41:55;53.6;42.4;28.6
76045;PMS7003;64741;41.730;44.788;2023-02-28T09:46:56;49.2;39.4;27.4
76045;PMS7003;64741;41.730;44.788;2023-02-28T09:51:55;50.2;40.6;27.8
76045;PMS7003;64741;41.730;44.788;2023-02-28T09:57:00;49.8;39.6;26.2
76045;PMS7003;64741;41.730;44.788;2023-02-28T10:01:54;51.4;39.4;27
76045;PMS7003;64741;41.730;44.788;2023-02-28T10:06:55;47.8;38.2;26.2
76045;PMS7003;64741;41.730;44.788;2023-02-28T10:12:04;44.8;35.2;23.8
76045;PMS7003;64741;41.730;44.788;2023-02-28T10:16:58;44.6;35.2;24.2
76045;PMS7003;64741;41.730;44.788;2023-02-28T10:21:59;41.8;33.6;23.4
76045;PMS7003;64741;41.730;44.788;2023-02-28T10:26:51;40.6;33.2;23.2
76045;PMS7003;64741;41.730;44.788;2023-02-28T10:31:58;40.2;33;22.8
76045;PMS7003;64741;41.730;44.788;2023-02-28T10:36:55;38.2;30.8;21.2
76045;PMS7003;64741;41.730;44.788;2023-02-28T10:41:57;34.2;29.2;20.6
76045;PMS7003;64741;41.730;44.788;2023-02-28T10:46:59;34.8;29.8;20.6
76045;PMS7003;64741;41.730;44.788;2023-02-28T10:51:54;32.8;29.6;20.2
76045;PMS7003;64741;41.730;44.788;2023-02-28T10:56:37;31;26.8;19
76045;PMS7003;64741;41.730;44.788;2023-02-28T11:01:55;30.2;26.8;19.2
76045;PMS7003;64741;41.730;44.788;2023-02-28T11:06:57;28.2;24.8;18
76045;PMS7003;64741;41.730;44.788;2023-02-28T11:11:57;28.4;25.8;18
76045;PMS7003;64741;41.730;44.788;2023-02-28T11:16:39;28;24.2;17.4
76045;PMS7003;64741;41.730;44.788;2023-02-28T11:21:56;24.8;21.6;15.6
76045;PMS7003;64741;41.730;44.788;2023-02-28T11:26:53;25.4;21.4;16
76045;PMS7003;64741;41.730;44.788;2023-02-28T11:32:00;25;21.6;15
76045;PMS7003;64741;41.730;44.788;2023-02-28T11:37:01;19.4;18.6;14
76045;PMS7003;64741;41.730;44.788;2023-02-28T11:41:58;19;17.2;12.2
76045;PMS7003;64741;41.730;44.788;2023-02-28T11:46:58;19.6;17.8;12.8
76045;PMS7003;64741;41.730;44.788;2023-02-28T11:51:56;18.6;17;11.8
76045;PMS7003;64741;41.730;44.788;2023-02-28T11:56:58;18;15.6;10.8
76045;PMS7003;64741;41.730;44.788;2023-02-28T12:02:04;16.8;13.8;11
76045;PMS7003;64741;41.730;44.788;2023-02-28T12:06:53;14.3;12.3;9.8
76045;PMS7003;64741;41.730;44.788;2023-02-28T12:11:58;15;12.4;9.2
76045;PMS7003;64741;41.730;44.788;2023-02-28T12:16:59;13.4;12;9
76045;PMS7003;64741;41.730;44.788;2023-02-28T12:22:05;12;11.4;8.2
76045;PMS7003;64741;41.730;44.788;2023-02-28T12:27:00;14.4;12.6;9.4
76045;PMS7003;64741;41.730;44.788;2023-02-28T12:31:56;11.2;10.2;7.4
76045;PMS7003;64741;41.730;44.788;2023-02-28T12:37:01;14.4;11.6;8
76045;PMS7003;64741;41.730;44.788;2023-02-28T12:41:59;11.6;9.6;7.6
76045;PMS7003;64741;41.730;44.788;2023-02-28T12:47:00;13.6;11.6;8.6
76045;PMS7003;64741;41.730;44.788;2023-02-28T12:51:35;12.6;10.8;7.8
76045;PMS7003;64741;41.730;44.788;2023-02-28T12:56:57;10.8;9.4;7.4
76045;PMS7003;64741;41.730;44.788;2023-02-28T13:02:02;12.2;10.6;7.8
76045;PMS7003;64741;41.730;44.788;2023-02-28T13:07:08;9;8.2;6.4
76045;PMS7003;64741;41.730;44.788;2023-02-28T13:11:55;13.2;10.4;6.8
76045;PMS7003;64741;41.730;44.788;2023-02-28T13:17:00;11.2;9;7
76045;PMS7003;64741;41.730;44.788;2023-02-28T13:21:55;9.6;8.8;6.4
76045;PMS7003;64741;41.730;44.788;2023-02-28T13:27:24;9.2;8.2;6.6
76045;PMS7003;64741;41.730;44.788;2023-02-28T13:32:34;9.2;8;6.2
76045;PMS7003;64741;41.730;44.788;2023-02-28T13:37:04;9;8;5.8
76045;PMS7003;64741;41.730;44.788;2023-02-28T13:42:05;11;9.4;7.2
76045;PMS7003;64741;41.730;44.788;2023-02-28T13:47:29;10;9;6.2
76045;PMS7003;64741;41.730;44.788;2023-02-28T13:52:02;10;8.2;6.4
76045;PMS7003;64741;41.730;44.788;2023-02-28T13:57:01;7.6;7.4;5.6
76045;PMS7003;64741;41.730;44.788;2023-02-28T14:01:59;8.4;7.2;6.2
76045;PMS7003;64741;41.730;44.788;2023-02-28T14:06:59;9.6;7.6;5.2
76045;PMS7003;64741;41.730;44.788;2023-02-28T14:11:57;8.8;7.4;5.8
76045;PMS7003;64741;41.730;44.788;2023-02-28T14:16:59;8.6;7.6;5.2
76045;PMS7003;64741;41.730;44.788;2023-02-28T14:21:33;8.8;7;5.4
76045;PMS7003;64741;41.730;44.788;2023-02-28T14:26:56;8.4;7;5
76045;PMS7003;64741;41.730;44.788;2023-02-28T14:31:57;9.8;9.6;6.8
76045;PMS7003;64741;41.730;44.788;2023-02-28T14:36:58;10.4;9.4;7
76045;PMS7003;64741;41.730;44.788;2023-02-28T14:41:57;10.2;8.4;5.8
76045;PMS7003;64741;41.730;44.788;2023-02-28T14:47:00;8.6;7.6;6
76045;PMS7003;64741;41.730;44.788;2023-02-28T14:52:01;9.4;8.2;6.8
76045;PMS7003;64741;41.730;44.788;2023-02-28T14:56:59;10.4;9.6;7.2
76045;PMS7003;64741;41.730;44.788;2023-02-28T15:02:29;10.2;9;6.6
76045;PMS7003;64741;41.730;44.788;2023-02-28T15:07:13;9.8;8.2;6.4
76045;PMS7003;64741;41.730;44.788;2023-02-28T15:12:01;8;7.4;5.6
76045;PMS7003;64741;41.730;44.788;2023-02-28T15:16:56;9.8;8.8;6.8
76045;PMS7003;64741;41.730;44.788;2023-02-28T15:22:00;9.8;8.2;6
76045;PMS7003;64741;41.730;44.788;2023-02-28T15:26:58;9.6;8.2;6
76045;PMS7003;64741;41.730;44.788;2023-02-28T15:32:00;8.4;7.2;5.4
76045;PMS7003;64741;41.730;44.788;2023-02-28T15:37:00;9.8;7.8;6
76045;PMS7003;64741;41.730;44.788;2023-02-28T15:42:09;8.8;7.2;6
76045;PMS7003;64741;41.730;44.788;2023-02-28T15:47:00;9;8;6
76045;PMS7003;64741;41.730;44.788;2023-02-28T15:51:58;8.8;8.2;5.8
76045;PMS7003;64741;41.730;44.788;2023-02-28T15:56:57;8;7.4;5.8
76045;PMS7003;64741;41.730;44.788;2023-02-28T16:02:04;7;6.4;5
76045;PMS7003;64741;41.730;44.788;2023-02-28T16:07:00;6.8;6;4.8
76045;PMS7003;64741;41.730;44.788;2023-02-28T16:11:59;9.2;7.6;5.4
76045;PMS7003;64741;41.730;44.788;2023-02-28T16:17:02;8.4;7;5.2
76045;PMS7003;64741;41.730;44.788;2023-02-28T16:21:59;7.6;7;5.2
76045;PMS7003;64741;41.730;44.788;2023-02-28T16:26:59;8.4;7.4;6
76045;PMS7003;64741;41.730;44.788;2023-02-28T16:31:55;8.2;6.4;4.8
76045;PMS7003;64741;41.730;44.788;2023-02-28T16:36:57;8.3;7.5;5.3
76045;PMS7003;64741;41.730;44.788;2023-02-28T16:41:55;9;7.4;5.8
76045;PMS7003;64741;41.730;44.788;2023-02-28T16:46:59;8.6;6.8;5
76045;PMS7003;64741;41.730;44.788;2023-02-28T16:51:59;7.4;6.6;5.2
76045;PMS7003;64741;41.730;44.788;2023-02-28T16:56:55;7;6.2;4.6
76045;PMS7003;64741;41.730;44.788;2023-02-28T17:01:59;7.4;6.4;5
76045;PMS7003;64741;41.730;44.788;2023-02-28T17:06:57;7.2;6.6;4.6
76045;PMS7003;64741;41.730;44.788;2023-02-28T17:11:59;7.8;6.8;4.6
76045;PMS7003;64741;41.730;44.788;2023-02-28T17:16:57;6.4;6;4.6
76045;PMS7003;64741;41.730;44.788;2023-02-28T17:21:59;7.6;6.2;4.8
76045;PMS7003;64741;41.730;44.788;2023-02-28T17:26:55;7;6.2;4.8
76045;PMS7003;64741;41.730;44.788;2023-02-28T17:31:55;7;6.4;5
76045;PMS7003;64741;41.730;44.788;2023-02-28T17:36:45;7.2;5.8;4.4
76045;PMS7003;64741;41.730;44.788;2023-02-28T17:41:57;6;6;4.2
76045;PMS7003;64741;41.730;44.788;2023-02-28T17:46:58;8;6;5
76045;PMS7003;64741;41.730;44.788;2023-02-28T17:51:57;7.8;6;4.8
76045;PMS7003;64741;41.730;44.788;2023-02-28T17:56:55;7;5.8;4.2
76045;PMS7003;64741;41.730;44.788;2023-02-28T18:01:59;6.4;5.8;4.2
76045;PMS7003;64741;41.730;44.788;2023-02-28T18:06:55;5.8;5.8;4.6
76045;PMS7003;64741;41.730;44.788;2023-02-28T18:11:57;7;5.4;3.8
76045;PMS7003;64741;41.730;44.788;2023-02-28T18:16:58;6.8;5.6;4.4
76045;PMS7003;64741;41.730;44.788;2023-02-28T18:21:53;6;5.6;4.6
76045;PMS7003;64741;41.730;44.788;2023-02-28T18:26:59;6.6;5.8;4
76045;PMS7003;64741;41.730;44.788;2023-02-28T18:31:56;7.8;5.4;4.2
76045;PMS7003;64741;41.730;44.788;2023-02-28T18:36:59;6.4;5.6;4.2
76045;PMS7003;64741;41.730;44.788;2023-02-28T18:41:57;7;5.4;4.6
76045;PMS7003;64741;41.730;44.788;2023-02-28T18:46:55;5.6;4.8;3.6
76045;PMS7003;64741;41.730;44.788;2023-02-28T18:52:01;7.8;6.2;4.6
76045;PMS7003;64741;41.730;44.788;2023-02-28T18:56:55;5.2;4.6;3.2
76045;PMS7003;64741;41.730;44.788;2023-02-28T19:01:57;5.4;5;3.6
76045;PMS7003;64741;41.730;44.788;2023-02-28T19:06:57;7.8;6.2;4.6
76045;PMS7003;64741;41.730;44.788;2023-02-28T19:11:55;6.2;5.4;4
76045;PMS7003;64741;41.730;44.788;2023-02-28T19:17:01;5.8;4.6;3.2
76045;PMS7003;64741;41.730;44.788;2023-02-28T19:21:57;5.4;5;4
76045;PMS7003;64741;41.730;44.788;2023-02-28T19:26:55;6.6;5.4;4.2
76045;PMS7003;64741;41.730;44.788;2023-02-28T19:31:55;6.6;4.6;3.2
76045;PMS7003;64741;41.730;44.788;2023-02-28T19:36:55;4.8;4.6;3.2
76045;PMS7003;64741;41.730;44.788;2023-02-28T19:42:02;5.5;4;3
76045;PMS7003;64741;41.730;44.788;2023-02-28T19:46:57;5.2;5;3.4
76045;PMS7003;64741;41.730;44.788;2023-02-28T19:51:59;6;5.2;3.4
76045;PMS7003;64741;41.730;44.788;2023-02-28T19:56:56;7;5.6;4.2
76045;PMS7003;64741;41.730;44.788;2023-02-28T20:01:53;5.4;4.2;3
76045;PMS7003;64741;41.730;44.788;2023-02-28T20:07:01;9.6;8.2;6.2
76045;PMS7003;64741;41.730;44.788;2023-02-28T20:11:57;8.2;7;5.6
76045;PMS7003;64741;41.730;44.788;2023-02-28T20:17:00;7.8;7.2;5.6
76045;PMS7003;64741;41.730;44.788;2023-02-28T20:21:55;8.8;7.4;5.6
76045;PMS7003;64741;41.730;44.788;2023-02-28T20:26:53;9.2;7.8;6
76045;PMS7003;64741;41.730;44.788;2023-02-28T20:32:01;8.4;7.2;5.4
76045;PMS7003;64741;41.730;44.788;2023-02-28T20:36:57;7.2;6.4;5
76045;PMS7003;64741;41.730;44.788;2023-02-28T20:41:59;8;7.3;5.3
76045;PMS7003;64741;41.730;44.788;2023-02-28T20:46:57;8;6.8;5.6
76045;PMS7003;64741;41.730;44.788;2023-02-28T20:51:55;8.2;6.2;5.4
76045;PMS7003;64741;41.730;44.788;2023-02-28T20:56:59;7.8;6.6;5
76045;PMS7003;64741;41.730;44.788;2023-02-28T21:01:57;8.8;7.4;5.6
76045;PMS7003;64741;41.730;44.788;2023-02-28T21:06:59;7.4;7.2;5.4
76045;PMS7003;64741;41.730;44.788;2023-02-28T21:11:55;8.2;7.6;5.6
76045;PMS7003;64741;41.730;44.788;2023-02-28T21:16:55;8.6;7.2;4.8
76045;PMS7003;64741;41.730;44.788;2023-02-28T21:22:01;8.6;7.6;5.8
76045;PMS7003;64741;41.730;44.788;2023-02-28T21:26:53;6.8;6.2;4.8
76045;PMS7003;64741;41.730;44.788;2023-02-28T21:31:59;7.8;7;5
76045;PMS7003;64741;41.730;44.788;2023-02-28T21:36:55;7.6;7;5
76045;PMS7003;64741;41.730;44.788;2023-02-28T21:41:55;7.6;6.6;5
76045;PMS7003;64741;41.730;44.788;2023-02-28T21:46:59;8.6;7.2;5.4
76045;PMS7003;64741;41.730;44.788;2023-02-28T21:51:55;5.8;5.6;4
76045;PMS7003;64741;41.730;44.788;2023-02-28T21:56:59;7.6;7.2;5.2
76045;PMS7003;64741;41.730;44.788;2023-02-28T22:01:55;7.6;6.6;5.2
76045;PMS7003;64741;41.730;44.788;2023-02-28T22:06:55;6.6;5.8;4.8
76045;PMS7003;64741;41.730;44.788;2023-02-28T22:12:01;6.4;5.8;4.6
76045;PMS7003;64741;41.730;44.788;2023-02-28T22:16:53;8.2;6.6;5
76045;PMS7003;64741;41.730;44.788;2023-02-28T22:21:59;7;6.2;4.6
76045;PMS7003;64741;41.730;44.788;2023-02-28T22:26:55;6.8;5.8;5
76045;PMS7003;64741;41.730;44.788;2023-02-28T22:31:55;7.2;6.2;4.4
76045;PMS7003;64741;41.730;44.788;2023-02-28T22:37:01;4.6;4.4;3.2
76045;PMS7003;64741;41.730;44.788;2023-02-28T22:41:53;7.2;5.6;4.8
76045;PMS7003;64741;41.730;44.788;2023-02-28T22:46:59;6.4;6.2;4.4
76045;PMS7003;64741;41.730;44.788;2023-02-28T22:51:57;5.2;4.8;3.8
76045;PMS7003;64741;41.730;44.788;2023-02-28T22:56:51;6;5.8;4
76045;PMS7003;64741;41.730;44.788;2023-02-28T23:02:01;6.8;6;4.4
76045;PMS7003;64741;41.730;44.788;2023-02-28T23:06:55;6.6;5.8;4.2
76045;PMS7003;64741;41.730;44.788;2023-02-28T23:11:59;6.4;5.6;4
76045;PMS7003;64741;41.730;44.788;2023-02-28T23:16:55;6.2;4.8;4
76045;PMS7003;64741;41.730;44.788;2023-02-28T23:21:53;4.6;4.6;4.2
76045;PMS7003;64741;41.730;44.788;2023-02-28T23:26:58;6.8;5.8;4.6
76045;PMS7003;64741;41.730;44.788;2023-02-28T23:31:39;6.6;6.2;5
76045;PMS7003;64741;41.730;44.788;2023-02-28T23:36:43;5.4;4.8;4
76045;PMS7003;64741;41.730;44.788;2023-02-28T23:41:51;5.8;4.4;3.8
76045;PMS7003;64741;41.730;44.788;2023-02-28T23:46:51;5;4;3.4
76045;PMS7003;64741;41.730;44.788;2023-02-28T23:51:57;6.4;5.2;2.8
76045;PMS7003;64741;41.730;44.788;2023-02-28T23:56:51;5.6;4.8;3.2
